sensor_id;sensor_type;location;lat;lon;timestamp;temperature;humidity
41944;DHT22;27636;52.610;13.244;2022-11-25T00:04:15;3.20;99.90
41944;DHT22;27636;52.610;13.244;2022-11-25T00:09:19;3.10;99.90
41944;DHT22;27636;52.610;13.244;2022-11-25T00:14:22;3.20;99.90
41944;DHT22;27636;52.610;13.244;2022-11-25T00:19:27;3.20;99.90
41944;DHT22;27636;52.610;13.244;2022-11-25T00:24:30;3.10;99.90
41944;DHT22;27636;52.610;13.244;2022-11-25T00:29:33;3.30;99.90
41944;DHT22;27636;52.610;13.244;2022-11-25T00:34:38;3.30;99.90
41944;DHT22;27636;52.610;13.244;2022-11-25T00:39:43;3.20;99.90
41944;DHT22;27636;52.610;13.244;2022-11-25T00:44:46;3.30;99.90
41944;DHT22;27636;52.610;13.244;2022-11-25T00:49:52;3.30;99.90
41944;DHT22;27636;52.610;13.244;2022-11-25T00:54:56;3.40;99.90
41944;DHT22;27636;52.610;13.244;2022-11-25T01:00:00;3.40;99.90
41944;DHT22;27636;52.610;13.244;2022-11-25T01:05:05;3.40;99.90
41944;DHT22;27636;52.610;13.244;2022-11-25T01:10:10;3.40;99.90
41944;DHT22;27636;52.610;13.244;2022-11-25T01:15:13;3.50;99.90
41944;DHT22;27636;52.610;13.244;2022-11-25T01:20:18;3.40;99.90
41944;DHT22;27636;52.610;13.244;2022-11-25T01:25:21;3.40;99.90
41944;DHT22;27636;52.610;13.244;2022-11-25T01:30:24;3.40;99.90
41944;DHT22;27636;52.610;13.244;2022-11-25T01:35:30;3.20;99.90
41944;DHT22;27636;52.610;13.244;2022-11-25T01:40:33;3.20;99.90
41944;DHT22;27636;52.610;13.244;2022-11-25T01:45:38;3.20;99.90
41944;DHT22;27636;52.610;13.244;2022-11-25T01:50:43;3.10;99.90
41944;DHT22;27636;52.610;13.244;2022-11-25T01:55:50;3.20;99.90
41944;DHT22;27636;52.610;13.244;2022-11-25T02:00:53;3.20;99.90
41944;DHT22;27636;52.610;13.244;2022-11-25T02:06:03;3.30;99.90
41944;DHT22;27636;52.610;13.244;2022-11-25T02:11:08;3.40;99.90
41944;DHT22;27636;52.610;13.244;2022-11-25T02:16:11;3.50;99.90
41944;DHT22;27636;52.610;13.244;2022-11-25T02:21:18;3.40;99.90
41944;DHT22;27636;52.610;13.244;2022-11-25T02:26:24;3.40;99.90
41944;DHT22;27636;52.610;13.244;2022-11-25T02:31:27;3.10;99.90
41944;DHT22;27636;52.610;13.244;2022-11-25T02:36:30;3.20;99.90
41944;DHT22;27636;52.610;13.244;2022-11-25T02:41:37;3.20;99.90
41944;DHT22;27636;52.610;13.244;2022-11-25T02:46:43;3.40;99.90
41944;DHT22;27636;52.610;13.244;2022-11-25T02:51:47;3.50;99.90
41944;DHT22;27636;52.610;13.244;2022-11-25T02:56:54;3.60;99.90
41944;DHT22;27636;52.610;13.244;2022-11-25T03:01:57;3.60;99.90
41944;DHT22;27636;52.610;13.244;2022-11-25T03:07:01;3.70;99.90
41944;DHT22;27636;52.610;13.244;2022-11-25T03:12:06;3.70;99.90
41944;DHT22;27636;52.610;13.244;2022-11-25T03:17:22;3.70;99.90
41944;DHT22;27636;52.610;13.244;2022-11-25T03:22:25;3.70;99.90
41944;DHT22;27636;52.610;13.244;2022-11-25T03:27:30;3.80;99.90
41944;DHT22;27636;52.610;13.244;2022-11-25T03:32:33;3.90;99.90
41944;DHT22;27636;52.610;13.244;2022-11-25T03:37:37;3.80;99.90
41944;DHT22;27636;52.610;13.244;2022-11-25T03:42:43;3.80;99.90
41944;DHT22;27636;52.610;13.244;2022-11-25T03:47:47;3.80;99.90
41944;DHT22;27636;52.610;13.244;2022-11-25T03:52:50;3.80;99.90
41944;DHT22;27636;52.610;13.244;2022-11-25T03:57:56;3.90;99.90
41944;DHT22;27636;52.610;13.244;2022-11-25T04:03:01;3.90;99.90
41944;DHT22;27636;52.610;13.244;2022-11-25T04:08:06;3.90;99.90
41944;DHT22;27636;52.610;13.244;2022-11-25T04:13:13;3.90;99.90
41944;DHT22;27636;52.610;13.244;2022-11-25T04:18:18;3.90;99.90
41944;DHT22;27636;52.610;13.244;2022-11-25T04:23:25;3.90;99.90
41944;DHT22;27636;52.610;13.244;2022-11-25T04:28:37;3.90;99.90
41944;DHT22;27636;52.610;13.244;2022-11-25T04:33:41;3.90;99.90
41944;DHT22;27636;52.610;13.244;2022-11-25T04:38:45;3.80;99.90
41944;DHT22;27636;52.610;13.244;2022-11-25T04:43:50;3.90;99.90
41944;DHT22;27636;52.610;13.244;2022-11-25T04:48:53;3.80;99.90
41944;DHT22;27636;52.610;13.244;2022-11-25T04:53:57;3.80;99.90
41944;DHT22;27636;52.610;13.244;2022-11-25T04:59:02;3.80;99.90
41944;DHT22;27636;52.610;13.244;2022-11-25T05:04:24;3.90;99.90
41944;DHT22;27636;52.610;13.244;2022-11-25T05:09:27;3.90;99.90
41944;DHT22;27636;52.610;13.244;2022-11-25T05:14:54;4.00;99.90
41944;DHT22;27636;52.610;13.244;2022-11-25T05:19:59;4.00;99.90
41944;DHT22;27636;52.610;13.244;2022-11-25T05:25:05;4.00;99.90
41944;DHT22;27636;52.610;13.244;2022-11-25T05:30:15;4.10;99.90
41944;DHT22;27636;52.610;13.244;2022-11-25T05:35:18;4.10;99.90
41944;DHT22;27636;52.610;13.244;2022-11-25T05:40:23;4.10;99.90
41944;DHT22;27636;52.610;13.244;2022-11-25T05:45:39;4.10;99.90
41944;DHT22;27636;52.610;13.244;2022-11-25T05:50:44;4.10;99.90
41944;DHT22;27636;52.610;13.244;2022-11-25T05:55:55;4.00;99.90
41944;DHT22;27636;52.610;13.244;2022-11-25T06:01:20;4.10;99.90
41944;DHT22;27636;52.610;13.244;2022-11-25T06:06:25;4.10;99.90
41944;DHT22;27636;52.610;13.244;2022-11-25T06:11:28;4.00;99.90
41944;DHT22;27636;52.610;13.244;2022-11-25T06:16:33;3.80;99.90
41944;DHT22;27636;52.610;13.244;2022-11-25T06:21:47;3.60;99.90
41944;DHT22;27636;52.610;13.244;2022-11-25T06:26:51;3.30;99.90
41944;DHT22;27636;52.610;13.244;2022-11-25T06:31:55;3.00;99.90
41944;DHT22;27636;52.610;13.244;2022-11-25T06:37:25;2.90;99.90
41944;DHT22;27636;52.610;13.244;2022-11-25T06:42:28;2.80;99.90
41944;DHT22;27636;52.610;13.244;2022-11-25T06:47:32;2.60;99.90
41944;DHT22;27636;52.610;13.244;2022-11-25T06:52:36;2.40;99.90
41944;DHT22;27636;52.610;13.244;2022-11-25T06:57:39;2.40;99.90
41944;DHT22;27636;52.610;13.244;2022-11-25T07:02:44;2.40;99.90
41944;DHT22;27636;52.610;13.244;2022-11-25T07:07:51;2.70;99.90
41944;DHT22;27636;52.610;13.244;2022-11-25T07:12:54;2.70;99.90
41944;DHT22;27636;52.610;13.244;2022-11-25T07:17:58;2.60;99.90
41944;DHT22;27636;52.610;13.244;2022-11-25T07:23:02;2.60;99.90
41944;DHT22;27636;52.610;13.244;2022-11-25T07:28:05;2.50;99.90
41944;DHT22;27636;52.610;13.244;2022-11-25T07:33:09;2.60;99.90
41944;DHT22;27636;52.610;13.244;2022-11-25T07:38:12;2.60;99.90
41944;DHT22;27636;52.610;13.244;2022-11-25T07:43:16;2.60;99.90
41944;DHT22;27636;52.610;13.244;2022-11-25T07:48:20;2.80;99.90
41944;DHT22;27636;52.610;13.244;2022-11-25T07:53:23;2.90;99.90
41944;DHT22;27636;52.610;13.244;2022-11-25T07:58:27;3.10;99.90
41944;DHT22;27636;52.610;13.244;2022-11-25T08:03:33;3.40;99.90
41944;DHT22;27636;52.610;13.244;2022-11-25T08:08:39;3.60;99.90
41944;DHT22;27636;52.610;13.244;2022-11-25T08:13:44;3.90;99.90
41944;DHT22;27636;52.610;13.244;2022-11-25T08:18:49;4.30;99.90
41944;DHT22;27636;52.610;13.244;2022-11-25T08:23:53;4.70;99.90
41944;DHT22;27636;52.610;13.244;2022-11-25T08:28:57;4.80;99.90
41944;DHT22;27636;52.610;13.244;2022-11-25T08:34:02;4.80;99.90
41944;DHT22;27636;52.610;13.244;2022-11-25T08:39:06;4.90;99.90
41944;DHT22;27636;52.610;13.244;2022-11-25T08:44:29;5.20;99.90
41944;DHT22;27636;52.610;13.244;2022-11-25T08:49:34;5.10;99.90
41944;DHT22;27636;52.610;13.244;2022-11-25T08:54:43;5.30;99.90
41944;DHT22;27636;52.610;13.244;2022-11-25T08:59:46;6.70;99.90
41944;DHT22;27636;52.610;13.244;2022-11-25T09:04:51;8.10;99.90
41944;DHT22;27636;52.610;13.244;2022-11-25T09:09:54;9.40;99.90
41944;DHT22;27636;52.610;13.244;2022-11-25T09:14:57;10.60;99.90
41944;DHT22;27636;52.610;13.244;2022-11-25T09:20:02;11.10;99.90
41944;DHT22;27636;52.610;13.244;2022-11-25T09:25:07;10.80;99.90
41944;DHT22;27636;52.610;13.244;2022-11-25T09:30:11;9.70;99.90
41944;DHT22;27636;52.610;13.244;2022-11-25T09:35:16;9.70;99.90
41944;DHT22;27636;52.610;13.244;2022-11-25T09:40:26;10.30;99.90
41944;DHT22;27636;52.610;13.244;2022-11-25T09:45:40;9.30;99.90
41944;DHT22;27636;52.610;13.244;2022-11-25T09:51:12;8.70;99.90
41944;DHT22;27636;52.610;13.244;2022-11-25T09:56:28;8.20;99.90
41944;DHT22;27636;52.610;13.244;2022-11-25T10:01:41;8.10;99.90
41944;DHT22;27636;52.610;13.244;2022-11-25T10:06:50;7.80;99.90
41944;DHT22;27636;52.610;13.244;2022-11-25T10:12:00;8.00;99.90
41944;DHT22;27636;52.610;13.244;2022-11-25T10:17:12;8.00;99.90
41944;DHT22;27636;52.610;13.244;2022-11-25T10:22:23;7.90;99.90
41944;DHT22;27636;52.610;13.244;2022-11-25T10:27:30;8.00;99.90
41944;DHT22;27636;52.610;13.244;2022-11-25T10:32:42;7.90;99.90
41944;DHT22;27636;52.610;13.244;2022-11-25T10:37:49;8.20;99.90
41944;DHT22;27636;52.610;13.244;2022-11-25T10:42:57;8.60;99.90
41944;DHT22;27636;52.610;13.244;2022-11-25T10:48:09;8.80;99.90
41944;DHT22;27636;52.610;13.244;2022-11-25T10:53:19;8.60;99.90
41944;DHT22;27636;52.610;13.244;2022-11-25T10:58:31;8.90;99.90
41944;DHT22;27636;52.610;13.244;2022-11-25T11:03:35;8.80;99.90
41944;DHT22;27636;52.610;13.244;2022-11-25T11:08:40;9.10;99.90
41944;DHT22;27636;52.610;13.244;2022-11-25T11:13:46;9.00;99.90
41944;DHT22;27636;52.610;13.244;2022-11-25T11:18:50;8.60;99.90
41944;DHT22;27636;52.610;13.244;2022-11-25T11:23:56;8.70;99.90
41944;DHT22;27636;52.610;13.244;2022-11-25T11:29:04;9.30;99.90
41944;DHT22;27636;52.610;13.244;2022-11-25T11:34:29;9.40;99.90
41944;DHT22;27636;52.610;13.244;2022-11-25T11:39:53;9.70;99.90
41944;DHT22;27636;52.610;13.244;2022-11-25T11:45:14;9.40;99.90
41944;DHT22;27636;52.610;13.244;2022-11-25T11:50:27;9.60;99.90
41944;DHT22;27636;52.610;13.244;2022-11-25T11:55:42;10.00;99.90
41944;DHT22;27636;52.610;13.244;2022-11-25T12:01:22;9.80;99.90
41944;DHT22;27636;52.610;13.244;2022-11-25T12:06:30;9.60;99.90
41944;DHT22;27636;52.610;13.244;2022-11-25T12:11:41;9.50;99.90
41944;DHT22;27636;52.610;13.244;2022-11-25T12:16:49;9.40;99.90
41944;DHT22;27636;52.610;13.244;2022-11-25T12:21:55;9.60;99.90
41944;DHT22;27636;52.610;13.244;2022-11-25T12:27:07;9.10;99.90
41944;DHT22;27636;52.610;13.244;2022-11-25T12:32:43;8.90;99.90
41944;DHT22;27636;52.610;13.244;2022-11-25T12:37:53;8.60;99.90
41944;DHT22;27636;52.610;13.244;2022-11-25T12:43:09;8.30;99.90
41944;DHT22;27636;52.610;13.244;2022-11-25T12:48:13;8.10;99.90
41944;DHT22;27636;52.610;13.244;2022-11-25T12:53:28;8.10;99.90
41944;DHT22;27636;52.610;13.244;2022-11-25T12:58:44;8.00;99.90
41944;DHT22;27636;52.610;13.244;2022-11-25T13:04:31;7.70;99.90
41944;DHT22;27636;52.610;13.244;2022-11-25T13:10:00;7.50;99.90
41944;DHT22;27636;52.610;13.244;2022-11-25T13:15:22;7.50;99.90
41944;DHT22;27636;52.610;13.244;2022-11-25T13:20:37;7.40;99.90
41944;DHT22;27636;52.610;13.244;2022-11-25T13:25:43;7.60;99.90
41944;DHT22;27636;52.610;13.244;2022-11-25T13:30:48;7.40;99.90
41944;DHT22;27636;52.610;13.244;2022-11-25T13:35:54;7.50;99.90
41944;DHT22;27636;52.610;13.244;2022-11-25T13:41:00;7.50;99.90
41944;DHT22;27636;52.610;13.244;2022-11-25T13:46:05;7.40;99.90
41944;DHT22;27636;52.610;13.244;2022-11-25T13:51:16;7.30;99.90
41944;DHT22;27636;52.610;13.244;2022-11-25T13:56:27;7.10;99.90
41944;DHT22;27636;52.610;13.244;2022-11-25T14:01:32;7.10;99.90
41944;DHT22;27636;52.610;13.244;2022-11-25T14:06:57;7.10;99.90
41944;DHT22;27636;52.610;13.244;2022-11-25T14:12:20;7.30;99.90
41944;DHT22;27636;52.610;13.244;2022-11-25T14:17:46;7.20;99.90
41944;DHT22;27636;52.610;13.244;2022-11-25T14:28:42;6.70;99.90
41944;DHT22;27636;52.610;13.244;2022-11-25T14:33:53;6.70;99.90
41944;DHT22;27636;52.610;13.244;2022-11-25T14:39:00;6.60;99.90
41944;DHT22;27636;52.610;13.244;2022-11-25T14:44:11;6.60;99.90
41944;DHT22;27636;52.610;13.244;2022-11-25T14:49:18;6.50;99.90
41944;DHT22;27636;52.610;13.244;2022-11-25T14:54:42;6.60;99.90
41944;DHT22;27636;52.610;13.244;2022-11-25T14:59:46;6.60;99.90
41944;DHT22;27636;52.610;13.244;2022-11-25T15:04:51;6.50;99.90
41944;DHT22;27636;52.610;13.244;2022-11-25T15:09:55;6.40;99.90
41944;DHT22;27636;52.610;13.244;2022-11-25T15:14:59;6.50;99.90
41944;DHT22;27636;52.610;13.244;2022-11-25T15:20:10;6.60;99.90
41944;DHT22;27636;52.610;13.244;2022-11-25T15:25:15;6.50;99.90
41944;DHT22;27636;52.610;13.244;2022-11-25T15:30:23;6.60;99.90
41944;DHT22;27636;52.610;13.244;2022-11-25T15:35:28;6.50;99.90
41944;DHT22;27636;52.610;13.244;2022-11-25T15:40:33;6.40;99.90
41944;DHT22;27636;52.610;13.244;2022-11-25T15:45:42;6.40;99.90
41944;DHT22;27636;52.610;13.244;2022-11-25T15:50:47;6.40;99.90
41944;DHT22;27636;52.610;13.244;2022-11-25T15:55:51;6.40;99.90
41944;DHT22;27636;52.610;13.244;2022-11-25T16:00:59;6.40;99.90
41944;DHT22;27636;52.610;13.244;2022-11-25T16:06:19;6.40;99.90
41944;DHT22;27636;52.610;13.244;2022-11-25T16:11:23;6.30;99.90
41944;DHT22;27636;52.610;13.244;2022-11-25T16:16:28;6.30;99.90
41944;DHT22;27636;52.610;13.244;2022-11-25T16:21:43;6.40;99.90
41944;DHT22;27636;52.610;13.244;2022-11-25T16:26:50;6.30;99.90
41944;DHT22;27636;52.610;13.244;2022-11-25T16:31:54;6.30;99.90
41944;DHT22;27636;52.610;13.244;2022-11-25T16:36:59;6.30;99.90
41944;DHT22;27636;52.610;13.244;2022-11-25T16:42:02;6.30;99.90
41944;DHT22;27636;52.610;13.244;2022-11-25T16:47:08;6.20;99.90
41944;DHT22;27636;52.610;13.244;2022-11-25T16:52:13;6.20;99.90
41944;DHT22;27636;52.610;13.244;2022-11-25T16:57:19;6.20;99.90
41944;DHT22;27636;52.610;13.244;2022-11-25T17:02:23;6.20;99.90
41944;DHT22;27636;52.610;13.244;2022-11-25T17:07:28;6.20;99.90
41944;DHT22;27636;52.610;13.244;2022-11-25T17:12:37;6.20;99.90
41944;DHT22;27636;52.610;13.244;2022-11-25T17:17:40;6.10;99.90
41944;DHT22;27636;52.610;13.244;2022-11-25T17:22:47;6.10;99.90
41944;DHT22;27636;52.610;13.244;2022-11-25T17:27:50;6.10;99.90
41944;DHT22;27636;52.610;13.244;2022-11-25T17:32:57;6.10;99.90
41944;DHT22;27636;52.610;13.244;2022-11-25T17:38:11;6.00;99.90
41944;DHT22;27636;52.610;13.244;2022-11-25T17:43:16;6.00;99.90
41944;DHT22;27636;52.610;13.244;2022-11-25T17:48:19;6.00;99.90
41944;DHT22;27636;52.610;13.244;2022-11-25T17:53:24;6.00;99.90
41944;DHT22;27636;52.610;13.244;2022-11-25T17:58:28;6.00;99.90
41944;DHT22;27636;52.610;13.244;2022-11-25T18:03:32;6.00;99.90
41944;DHT22;27636;52.610;13.244;2022-11-25T18:08:36;6.10;99.90
41944;DHT22;27636;52.610;13.244;2022-11-25T18:13:40;6.10;99.90
41944;DHT22;27636;52.610;13.244;2022-11-25T18:18:45;6.00;99.90
41944;DHT22;27636;52.610;13.244;2022-11-25T18:23:50;6.00;99.90
41944;DHT22;27636;52.610;13.244;2022-11-25T18:28:54;6.00;99.90
41944;DHT22;27636;52.610;13.244;2022-11-25T18:33:57;6.00;99.90
41944;DHT22;27636;52.610;13.244;2022-11-25T18:39:02;6.00;99.90
41944;DHT22;27636;52.610;13.244;2022-11-25T18:44:09;6.10;99.90
41944;DHT22;27636;52.610;13.244;2022-11-25T18:49:22;6.00;99.90
41944;DHT22;27636;52.610;13.244;2022-11-25T18:54:27;6.00;99.90
41944;DHT22;27636;52.610;13.244;2022-11-25T18:59:32;6.00;99.90
41944;DHT22;27636;52.610;13.244;2022-11-25T19:04:36;6.00;99.90
41944;DHT22;27636;52.610;13.244;2022-11-25T19:09:42;6.00;99.90
41944;DHT22;27636;52.610;13.244;2022-11-25T19:14:45;6.00;99.90
41944;DHT22;27636;52.610;13.244;2022-11-25T19:19:49;6.00;99.90
41944;DHT22;27636;52.610;13.244;2022-11-25T19:24:55;6.10;99.90
41944;DHT22;27636;52.610;13.244;2022-11-25T19:30:01;6.10;99.90
41944;DHT22;27636;52.610;13.244;2022-11-25T19:35:07;6.10;99.90
41944;DHT22;27636;52.610;13.244;2022-11-25T19:40:16;6.10;99.90
41944;DHT22;27636;52.610;13.244;2022-11-25T19:45:20;6.10;99.90
41944;DHT22;27636;52.610;13.244;2022-11-25T19:50:26;6.10;99.90
41944;DHT22;27636;52.610;13.244;2022-11-25T19:55:30;6.10;99.90
41944;DHT22;27636;52.610;13.244;2022-11-25T20:00:35;6.10;99.90
41944;DHT22;27636;52.610;13.244;2022-11-25T20:05:38;6.10;99.90
41944;DHT22;27636;52.610;13.244;2022-11-25T20:10:43;6.10;99.90
41944;DHT22;27636;52.610;13.244;2022-11-25T20:15:46;6.10;99.90
41944;DHT22;27636;52.610;13.244;2022-11-25T20:20:55;6.10;99.90
41944;DHT22;27636;52.610;13.244;2022-11-25T20:26:01;6.10;99.90
41944;DHT22;27636;52.610;13.244;2022-11-25T20:31:08;6.10;99.90
41944;DHT22;27636;52.610;13.244;2022-11-25T20:36:14;6.10;99.90
41944;DHT22;27636;52.610;13.244;2022-11-25T20:41:19;6.10;99.90
41944;DHT22;27636;52.610;13.244;2022-11-25T20:46:29;6.10;99.90
41944;DHT22;27636;52.610;13.244;2022-11-25T20:51:33;6.10;99.90
41944;DHT22;27636;52.610;13.244;2022-11-25T20:56:38;6.20;99.90
41944;DHT22;27636;52.610;13.244;2022-11-25T21:01:41;6.10;99.90
41944;DHT22;27636;52.610;13.244;2022-11-25T21:06:45;6.20;99.90
41944;DHT22;27636;52.610;13.244;2022-11-25T21:11:49;6.20;99.90
41944;DHT22;27636;52.610;13.244;2022-11-25T21:16:53;6.20;99.90
41944;DHT22;27636;52.610;13.244;2022-11-25T21:21:56;6.20;99.90
41944;DHT22;27636;52.610;13.244;2022-11-25T21:27:04;6.20;99.90
41944;DHT22;27636;52.610;13.244;2022-11-25T21:32:19;6.30;99.90
41944;DHT22;27636;52.610;13.244;2022-11-25T21:37:27;6.30;99.90
41944;DHT22;27636;52.610;13.244;2022-11-25T21:42:33;6.30;99.90
41944;DHT22;27636;52.610;13.244;2022-11-25T21:47:37;6.30;99.90
41944;DHT22;27636;52.610;13.244;2022-11-25T21:52:41;6.30;99.90
41944;DHT22;27636;52.610;13.244;2022-11-25T21:57:45;6.30;99.90
41944;DHT22;27636;52.610;13.244;2022-11-25T22:02:48;6.30;99.90
41944;DHT22;27636;52.610;13.244;2022-11-25T22:07:52;6.40;99.90
41944;DHT22;27636;52.610;13.244;2022-11-25T22:12:58;6.40;99.90
41944;DHT22;27636;52.610;13.244;2022-11-25T22:18:01;6.40;99.90
41944;DHT22;27636;52.610;13.244;2022-11-25T22:23:10;6.40;99.90
41944;DHT22;27636;52.610;13.244;2022-11-25T22:28:18;6.50;99.90
41944;DHT22;27636;52.610;13.244;2022-11-25T22:33:27;6.40;99.90
41944;DHT22;27636;52.610;13.244;2022-11-25T22:38:32;6.50;99.90
41944;DHT22;27636;52.610;13.244;2022-11-25T22:43:47;6.50;99.90
41944;DHT22;27636;52.610;13.244;2022-11-25T22:48:52;6.50;99.90
41944;DHT22;27636;52.610;13.244;2022-11-25T22:53:56;6.60;99.90
41944;DHT22;27636;52.610;13.244;2022-11-25T22:59:01;6.60;99.90
41944;DHT22;27636;52.610;13.244;2022-11-25T23:04:04;6.80;99.90
41944;DHT22;27636;52.610;13.244;2022-11-25T23:09:13;6.80;99.90
41944;DHT22;27636;52.610;13.244;2022-11-25T23:14:17;6.80;99.90
41944;DHT22;27636;52.610;13.244;2022-11-25T23:19:21;6.80;99.90
41944;DHT22;27636;52.610;13.244;2022-11-25T23:24:24;6.80;99.90
41944;DHT22;27636;52.610;13.244;2022-11-25T23:29:29;6.90;99.90
41944;DHT22;27636;52.610;13.244;2022-11-25T23:34:33;6.80;99.90
41944;DHT22;27636;52.610;13.244;2022-11-25T23:39:36;6.90;99.90
41944;DHT22;27636;52.610;13.244;2022-11-25T23:44:41;6.90;99.90
41944;DHT22;27636;52.610;13.244;2022-11-25T23:49:47;6.90;99.90
41944;DHT22;27636;52.610;13.244;2022-11-25T23:54:52;6.90;99.90
41944;DHT22;27636;52.610;13.244;2022-11-25T23:59:57;6.90;99.90
